Time;durP1;ratioP1;P1;durP2;ratioP2;P2;SDS_P1;SDS_P2;PMS_P1;PMS_P2;Temp;Humidity;BMP_temperature;BMP_pressure;BME280_temperature;BME280_humidity;BME280_pressure;Samples;Min_cycle;Max_cycle;Signal;HPM_P1;HPM_P2
2023/01/16 00:02:29;;;;;;;1.20;1.10;;;;;;;3.54;100.00;99534.63;5017508;28;20072;-92
2023/01/16 00:04:54;;;;;;;1.48;1.20;;;;;;;3.51;100.00;99534.63;5035936;28;20030;-93
2023/01/16 00:07:26;;;;;;;1.40;1.30;;;;;;;3.47;100.00;99532.13;5036256;28;20029;-92
2023/01/16 00:09:51;;;;;;;1.83;1.35;;;;;;;3.46;99.42;99522.72;5035941;28;20029;-92
2023/01/16 00:12:16;;;;;;;2.08;1.23;;;;;;;3.39;99.51;99520.19;5036091;28;20043;-93
2023/01/16 00:14:41;;;;;;;1.65;1.35;;;;;;;3.36;99.78;99520.22;5036331;28;20095;-92
2023/01/16 00:17:34;;;;;;;2.38;1.30;;;;;;;3.35;99.56;99520.25;5035953;28;20029;-93
2023/01/16 00:19:59;;;;;;;3.38;1.35;;;;;;;3.39;98.90;99516.78;5036017;28;20060;-93
2023/01/16 00:22:43;;;;;;;1.33;1.20;;;;;;;3.26;98.81;99512.63;5035838;28;20045;-93
2023/01/16 00:25:09;;;;;;;2.60;1.30;;;;;;;3.22;99.04;99504.06;5036019;28;20036;-92
2023/01/16 00:27:34;;;;;;;6.28;1.60;;;;;;;3.19;99.92;99502.38;5039488;28;20017;-92
2023/01/16 00:30:21;;;;;;;2.50;1.30;;;;;;;3.15;99.38;99500.72;5036048;28;20029;-92
2023/01/16 00:32:46;;;;;;;1.40;1.20;;;;;;;3.14;99.55;99504.13;5045718;28;20017;-92
2023/01/16 00:35:36;;;;;;;3.08;1.30;;;;;;;3.13;98.88;99504.13;5055281;28;20417;-92
2023/01/16 00:38:01;;;;;;;1.95;1.00;;;;;;;3.09;99.25;99508.44;5055882;28;20113;-92
2023/01/16 00:40:28;;;;;;;1.33;1.20;;;;;;;3.13;98.52;99504.13;5055380;28;20028;-92
2023/01/16 00:43:13;;;;;;;1.52;1.23;;;;;;;3.12;99.00;99502.44;5055503;28;20071;-93
2023/01/16 00:45:39;;;;;;;2.90;1.40;;;;;;;3.11;99.04;99501.59;5055245;28;20106;-92
2023/01/16 00:48:05;;;;;;;2.45;1.30;;;;;;;3.08;99.78;99488.78;5055131;28;20025;-92
2023/01/16 00:50:49;;;;;;;1.42;1.23;;;;;;;3.06;99.31;99481.13;5055611;28;20524;-92
2023/01/16 00:53:15;;;;;;;2.78;1.25;;;;;;;3.08;98.90;99486.22;5055182;28;20035;-92
2023/01/16 00:55:41;;;;;;;2.90;1.42;;;;;;;3.04;99.15;99482.00;5055118;28;20017;-92
2023/01/16 00:58:08;;;;;;;2.25;1.40;;;;;;;3.04;98.97;99480.25;5055244;28;20036;-92
2023/01/16 01:00:52;;;;;;;2.05;1.50;;;;;;;3.03;98.99;99464.91;5055085;28;20473;-93
2023/01/16 01:03:17;;;;;;;1.70;1.00;;;;;;;2.98;99.15;99457.25;5055019;28;20097;-92
2023/01/16 01:05:43;;;;;;;1.45;1.20;;;;;;;2.98;99.27;99454.69;5054503;28;21817;-92
2023/01/16 01:08:21;;;;;;;2.90;1.40;;;;;;;2.97;99.22;99452.13;5055316;28;20021;-92
2023/01/16 01:10:46;;;;;;;3.30;1.38;;;;;;;2.93;98.67;99449.56;5054973;28;20025;-92
2023/01/16 01:13:12;;;;;;;2.25;1.30;;;;;;;2.93;99.62;99444.44;5053888;28;20071;-92
2023/01/16 01:15:37;;;;;;;3.50;1.40;;;;;;;2.93;99.36;99448.72;5054639;28;20053;-93
2023/01/16 01:18:03;;;;;;;2.25;1.10;;;;;;;2.92;99.23;99441.91;5055049;28;20408;-92
2023/01/16 01:20:52;;;;;;;3.72;1.30;;;;;;;2.89;99.45;99437.66;5054325;28;20498;-92
2023/01/16 01:23:18;;;;;;;1.52;1.10;;;;;;;2.88;99.25;99429.94;5054067;28;20032;-92
2023/01/16 01:25:43;;;;;;;1.90;1.23;;;;;;;2.87;99.43;99425.72;5054334;28;20025;-92
2023/01/16 01:28:08;;;;;;;3.05;1.40;;;;;;;2.85;99.63;99420.59;5054131;28;20036;-91
2023/01/16 01:30:57;;;;;;;2.05;1.10;;;;;;;2.84;99.02;99420.59;5054691;28;20024;-92
2023/01/16 01:33:23;;;;;;;2.05;1.23;;;;;;;2.84;98.69;99407.78;5057347;28;20474;-92
2023/01/16 01:35:48;;;;;;;3.05;1.58;;;;;;;2.81;98.56;99400.13;5055506;28;20029;-91
2023/01/16 01:38:34;;;;;;;3.35;1.40;;;;;;;2.78;98.65;99399.28;5053983;28;20028;-92
2023/01/16 01:40:59;;;;;;;3.08;1.30;;;;;;;2.74;99.04;99396.75;5054678;28;20028;-92
2023/01/16 01:43:54;;;;;;;4.28;1.30;;;;;;;2.71;98.68;99387.38;5053764;28;20393;-92
2023/01/16 01:46:46;;;;;;;1.17;1.02;;;;;;;2.69;98.40;99378.84;5053855;28;20500;-92
2023/01/16 01:49:48;;;;;;;2.38;1.10;;;;;;;2.67;98.43;99369.47;5054131;28;20025;-92
2023/01/16 01:52:14;;;;;;;2.17;1.10;;;;;;;2.65;98.31;99366.06;5054334;28;20025;-92
2023/01/16 01:54:45;;;;;;;1.25;1.00;;;;;;;2.59;98.44;99349.03;5054253;28;20098;-92
2023/01/16 01:57:33;;;;;;;1.58;1.15;;;;;;;2.63;98.29;99355.84;5053968;28;20580;-92
2023/01/16 02:00:04;;;;;;;3.38;1.50;;;;;;;2.56;97.98;99337.09;5054449;28;20036;-92
2023/01/16 02:02:50;;;;;;;3.40;1.30;;;;;;;2.56;98.20;99328.56;5054447;28;20033;-92
2023/01/16 02:05:23;;;;;;;1.60;1.25;;;;;;;2.53;98.25;99328.59;5053345;28;20053;-91
2023/01/16 02:08:07;;;;;;;3.30;1.30;;;;;;;2.56;98.17;99320.88;5054164;28;20033;-92
2023/01/16 02:10:55;;;;;;;2.17;1.40;;;;;;;2.63;98.03;99315.69;5059476;28;20081;-92
2023/01/16 02:13:29;;;;;;;2.95;1.33;;;;;;;2.46;98.55;99312.41;5062312;28;20492;-91
2023/01/16 02:21:50;;;;;;;2.72;1.08;;;;;;;2.43;98.76;99310.69;5056439;28;20040;-92
2023/01/16 02:24:36;;;;;;;1.55;1.13;;;;;;;2.42;98.90;99296.19;5054179;28;20072;-92
2023/01/16 02:27:17;;;;;;;2.03;1.08;;;;;;;2.43;99.01;99292.78;5054348;28;20111;-92
2023/01/16 02:29:48;;;;;;;2.85;1.23;;;;;;;2.44;99.45;99288.53;5061860;28;20017;-91
2023/01/16 02:32:27;;;;;;;2.63;1.30;;;;;;;2.48;98.98;99279.94;5059268;28;20061;-92
2023/01/16 02:35:03;;;;;;;1.88;1.20;;;;;;;2.45;98.53;99265.47;5053556;28;20040;-92
2023/01/16 02:37:41;;;;;;;2.42;1.08;;;;;;;2.44;99.00;99261.19;5053934;28;20531;-92
2023/01/16 02:40:15;;;;;;;2.08;1.00;;;;;;;2.45;99.20;99252.66;5054561;28;20033;-92
2023/01/16 02:42:59;;;;;;;3.10;1.25;;;;;;;2.43;98.90;99236.44;5055282;28;20457;-92
2023/01/16 02:45:44;;;;;;;1.42;0.82;;;;;;;2.44;98.97;99233.03;5057481;28;20040;-91
2023/01/16 02:48:36;;;;;;;1.65;0.93;;;;;;;2.44;98.62;99216.81;5026411;28;20037;-92
2023/01/16 02:51:16;;;;;;;2.03;1.27;;;;;;;2.44;98.88;99209.97;5057540;28;20025;-92
2023/01/16 02:53:51;;;;;;;0.98;0.90;;;;;;;2.42;98.69;99195.50;5057611;28;20496;-91
2023/01/16 02:56:41;;;;;;;1.40;0.98;;;;;;;2.42;98.40;99185.25;5050556;28;20029;-92
2023/01/16 02:59:10;;;;;;;1.33;1.00;;;;;;;2.40;98.64;99181.84;5037249;28;20026;-92
2023/01/16 03:01:36;;;;;;;1.98;0.90;;;;;;;2.39;98.53;99173.34;5037595;28;20025;-92
2023/01/16 03:04:05;;;;;;;1.05;1.00;;;;;;;2.39;98.36;99172.47;5037612;28;20021;-91
2023/01/16 03:06:42;;;;;;;2.42;1.02;;;;;;;2.35;98.47;99160.56;5037568;28;20029;-92
2023/01/16 03:09:58;;;;;;;1.45;1.23;;;;;;;2.38;98.52;99160.53;5037388;28;20025;-91
2023/01/16 03:12:54;;;;;;;1.10;1.00;;;;;;;2.31;98.47;99150.34;4976445;28;20087;-91
2023/01/16 03:15:29;;;;;;;2.47;1.00;;;;;;;2.31;98.40;99146.94;4976391;28;20484;-91
2023/01/16 03:17:56;;;;;;;1.55;1.00;;;;;;;2.30;98.62;99138.41;5021103;28;20091;-91
2023/01/16 03:20:48;;;;;;;1.67;0.75;;;;;;;2.28;98.68;99122.22;5036522;28;20025;-92
2023/01/16 03:23:49;;;;;;;2.45;0.98;;;;;;;2.28;98.48;99113.69;5037034;28;20030;-92
2023/01/16 03:26:19;;;;;;;2.05;0.88;;;;;;;2.26;98.70;99113.69;5024909;28;20038;-92
2023/01/16 03:28:57;;;;;;;0.98;0.77;;;;;;;2.25;98.75;99104.31;5036637;28;20021;-91
2023/01/16 03:31:45;;;;;;;1.98;1.00;;;;;;;2.25;98.49;99096.63;5050756;28;20036;-91
2023/01/16 03:34:17;;;;;;;0.95;0.80;;;;;;;2.26;98.62;99098.34;5054414;28;20043;-92
2023/01/16 03:36:56;;;;;;;2.55;0.80;;;;;;;2.28;99.05;99082.97;5056877;28;20029;-92
2023/01/16 03:39:26;;;;;;;1.45;0.70;;;;;;;2.23;99.21;99071.94;5055939;28;20033;-92
2023/01/16 03:41:55;;;;;;;0.93;0.82;;;;;;;2.23;99.08;99075.34;5056585;28;20020;-91
2023/01/16 03:44:25;;;;;;;1.77;0.77;;;;;;;2.21;99.34;99064.28;5056652;28;20024;-91
2023/01/16 03:46:51;;;;;;;2.38;1.10;;;;;;;2.21;98.79;99056.59;5056952;28;20432;-91
2023/01/16 03:49:24;;;;;;;2.83;1.00;;;;;;;2.22;98.90;99044.63;5059699;28;20083;-92
2023/01/16 03:51:54;;;;;;;1.95;1.13;;;;;;;2.21;99.87;99036.13;5056775;28;20029;-91
2023/01/16 03:54:40;;;;;;;2.38;1.23;;;;;;;2.16;99.69;99022.50;5055867;28;20021;-91
2023/01/16 03:57:11;;;;;;;2.10;1.27;;;;;;;2.15;100.00;99015.69;5036599;28;20030;-91
2023/01/16 03:59:38;;;;;;;3.45;1.52;;;;;;;2.11;100.00;99016.59;5036515;28;20112;-91
2023/01/16 04:02:09;;;;;;;1.38;0.90;;;;;;;2.08;100.00;98998.72;5035994;28;20033;-92
2023/01/16 04:04:38;;;;;;;1.98;1.10;;;;;;;2.07;100.00;98995.31;5036271;28;20028;-91
2023/01/16 04:07:24;;;;;;;1.95;1.20;;;;;;;2.10;99.52;98987.59;5036528;28;20033;-91
2023/01/16 04:09:55;;;;;;;3.13;1.33;;;;;;;2.05;100.00;98983.38;5036322;28;20025;-92
2023/01/16 04:12:25;;;;;;;3.70;1.48;;;;;;;2.04;100.00;98963.78;5044953;28;20020;-91
2023/01/16 04:14:56;;;;;;;1.73;1.15;;;;;;;2.04;99.84;98961.22;5056071;28;20033;-91
2023/01/16 04:17:23;;;;;;;1.40;1.13;;;;;;;2.02;100.00;98955.28;5055842;28;20540;-92
2023/01/16 04:19:48;;;;;;;3.83;1.30;;;;;;;2.02;99.68;98952.72;5056275;28;20051;-92
2023/01/16 04:22:22;;;;;;;1.55;1.02;;;;;;;2.01;99.96;98944.19;5055557;28;20112;-92
2023/01/16 04:24:49;;;;;;;4.00;1.30;;;;;;;1.98;100.00;98937.41;5055876;28;20025;-91
2023/01/16 04:27:15;;;;;;;;;;;;;;;1.98;100.00;98932.28;5056247;28;20029;-91
2023/01/16 04:29:41;;;;;;;2.50;1.17;;;;;;;1.99;100.00;98920.31;5055782;28;19913;-91
2023/01/16 04:32:06;;;;;;;2.17;1.40;;;;;;;1.97;100.00;98906.72;5055691;28;20025;-91
2023/01/16 04:34:31;;;;;;;2.83;1.73;;;;;;;1.99;100.00;98900.72;5055434;28;20067;-91
2023/01/16 04:36:57;;;;;;;2.28;1.20;;;;;;;2.04;100.00;98882.75;5055790;28;20052;-92
2023/01/16 04:39:22;;;;;;;2.85;1.50;;;;;;;2.08;100.00;98870.75;5055218;28;20033;-91
2023/01/16 04:41:50;;;;;;;5.38;2.00;;;;;;;2.13;99.99;98866.44;5055743;28;20078;-91
2023/01/16 04:44:16;;;;;;;4.55;1.35;;;;;;;2.09;100.00;98857.94;5055143;28;20056;-91
2023/01/16 04:46:42;;;;;;;3.70;1.60;;;;;;;2.13;100.00;98836.56;5055074;28;20127;-91
2023/01/16 04:49:07;;;;;;;4.32;1.80;;;;;;;2.21;100.00;98835.59;5055185;28;20449;-91
2023/01/16 04:51:33;;;;;;;4.15;1.88;;;;;;;2.20;100.00;98826.22;5055021;28;20040;-91
2023/01/16 04:53:58;;;;;;;2.45;1.67;;;;;;;2.27;100.00;98813.34;5055601;28;20025;-91
2023/01/16 04:56:24;;;;;;;3.13;1.90;;;;;;;2.28;100.00;98806.53;5057932;28;20112;-91
2023/01/16 04:58:50;;;;;;;3.20;1.50;;;;;;;2.28;100.00;98801.41;5054961;28;20477;-91
2023/01/16 05:01:17;;;;;;;6.07;1.80;;;;;;;2.37;100.00;98785.03;5054767;28;20116;-92
2023/01/16 05:03:43;;;;;;;4.95;1.77;;;;;;;2.47;100.00;98781.50;5055017;28;20132;-90
2023/01/16 05:06:08;;;;;;;4.97;2.20;;;;;;;2.47;100.00;98769.53;5053417;28;21990;-89
2023/01/16 05:08:33;;;;;;;4.43;1.90;;;;;;;2.49;100.00;98760.97;5055070;28;20158;-91
2023/01/16 05:11:00;;;;;;;5.88;1.90;;;;;;;2.56;100.00;98762.56;5054998;28;20490;-91
2023/01/16 05:13:26;;;;;;;3.85;1.65;;;;;;;2.55;100.00;98746.38;5055111;28;20029;-91
2023/01/16 05:15:52;;;;;;;4.35;1.88;;;;;;;2.57;100.00;98742.06;5035332;28;20037;-91
2023/01/16 05:18:17;;;;;;;7.35;2.00;;;;;;;2.61;100.00;98733.44;5054474;28;20172;-91
2023/01/16 05:20:42;;;;;;;5.00;1.70;;;;;;;2.66;100.00;98727.41;5054743;28;20082;-91
2023/01/16 05:23:10;;;;;;;3.88;1.73;;;;;;;2.73;100.00;98721.28;5054738;28;20040;-91
2023/01/16 05:25:35;;;;;;;4.18;1.70;;;;;;;2.71;100.00;98715.34;5054937;28;20025;-91
2023/01/16 05:28:01;;;;;;;5.38;1.80;;;;;;;2.75;100.00;98699.94;5054819;28;20021;-91
2023/01/16 05:30:29;;;;;;;3.75;1.48;;;;;;;2.75;100.00;98694.81;5054627;28;20021;-91
2023/01/16 05:32:55;;;;;;;4.57;1.80;;;;;;;2.76;100.00;98678.53;5054991;28;20107;-89
2023/01/16 05:36:10;;;;;;;8.45;2.00;;;;;;;2.77;100.00;98671.72;5054427;28;20037;-91
2023/01/16 05:38:36;;;;;;;5.07;1.90;;;;;;;2.91;100.00;98656.94;5012964;28;20033;-91
2023/01/16 05:41:01;;;;;;;4.00;1.80;;;;;;;2.86;100.00;98648.47;5023053;28;20033;-91
2023/01/16 05:43:26;;;;;;;4.95;1.80;;;;;;;2.86;100.00;98633.09;5054356;28;20113;-91
2023/01/16 05:45:52;;;;;;;3.67;2.00;;;;;;;2.86;100.00;98617.72;5053223;28;20132;-91
2023/01/16 05:48:49;;;;;;;4.05;1.60;;;;;;;2.94;100.00;98618.41;5053915;28;20021;-91
2023/01/16 05:51:15;;;;;;;3.78;1.90;;;;;;;2.96;100.00;98603.03;5054011;28;20086;-93
2023/01/16 05:54:10;;;;;;;3.78;1.80;;;;;;;3.06;100.00;98601.09;5050551;28;20107;-96
2023/01/16 05:56:35;;;;;;;5.25;1.80;;;;;;;3.05;100.00;98601.97;5034117;28;20025;-89
2023/01/16 05:59:00;;;;;;;6.40;1.63;;;;;;;3.02;100.00;98589.25;5034567;28;20020;-90
2023/01/16 06:01:25;;;;;;;3.08;1.50;;;;;;;3.08;100.00;98582.28;5035177;28;20033;-87
2023/01/16 06:03:51;;;;;;;3.53;1.48;;;;;;;3.11;100.00;98580.50;5033118;28;20029;-86
2023/01/16 06:06:16;;;;;;;5.55;1.77;;;;;;;3.19;100.00;98576.06;5032506;28;20033;-86
2023/01/16 06:08:48;;;;;;;5.15;1.40;;;;;;;3.12;100.00;98572.81;5032873;28;20028;-86
2023/01/16 06:11:24;;;;;;;3.53;1.70;;;;;;;3.13;100.00;98558.25;5035510;28;20029;-86
2023/01/16 06:13:50;;;;;;;5.15;1.60;;;;;;;3.16;100.00;98564.16;5052961;28;20025;-86
2023/01/16 06:16:15;;;;;;;2.25;1.17;;;;;;;3.18;100.00;98567.53;5052505;28;20082;-86
2023/01/16 06:18:40;;;;;;;5.95;1.67;;;;;;;3.23;100.00;98550.34;5052890;28;20033;-86
2023/01/16 06:21:11;;;;;;;4.57;1.50;;;;;;;3.18;100.00;98539.34;5052853;28;20025;-86
2023/01/16 06:23:36;;;;;;;5.28;1.70;;;;;;;3.33;100.00;98545.84;5052164;28;20060;-87
2023/01/16 06:26:04;;;;;;;3.55;1.55;;;;;;;3.23;100.00;98534.09;5052892;28;20422;-87
2023/01/16 06:28:29;;;;;;;3.97;1.52;;;;;;;3.24;100.00;98528.97;5053014;28;20028;-89
2023/01/16 06:30:55;;;;;;;8.57;1.63;;;;;;;3.28;100.00;98528.88;5052770;28;20511;-88
2023/01/16 06:33:20;;;;;;;6.88;1.67;;;;;;;3.19;100.00;98535.88;5037818;28;20030;-88
2023/01/16 06:35:45;;;;;;;5.18;1.60;;;;;;;3.23;100.00;98519.56;5033623;28;20022;-88
2023/01/16 06:38:10;;;;;;;3.63;1.70;;;;;;;3.18;100.00;98512.88;5032757;28;20092;-89
2023/01/16 06:40:36;;;;;;;4.85;1.50;;;;;;;3.20;100.00;98499.13;5053760;28;20424;-96
2023/01/16 06:43:01;;;;;;;3.45;1.30;;;;;;;3.16;100.00;98500.06;5059147;28;20123;-95
2023/01/16 06:45:26;;;;;;;4.47;1.25;;;;;;;3.18;100.00;98492.38;5056247;28;20083;-96
2023/01/16 06:47:53;;;;;;;4.60;1.40;;;;;;;3.22;100.00;98481.16;5055135;28;20036;-93
2023/01/16 06:50:18;;;;;;;5.88;1.63;;;;;;;3.37;100.00;98450.03;5057727;28;20021;-96
2023/01/16 06:52:44;;;;;;;4.78;1.80;;;;;;;3.15;100.00;98449.72;5062418;28;20092;-96
2023/01/16 06:55:09;;;;;;;3.97;1.30;;;;;;;3.14;100.00;98422.41;5072048;28;20009;-96
2023/01/16 06:57:36;;;;;;;4.25;1.70;;;;;;;3.15;100.00;98421.53;5074677;28;20005;-96
2023/01/16 07:05:37;;;;;;;6.00;1.95;;;;;;;3.16;100.00;98383.91;5564043;22;21125;-96
2023/01/16 07:08:02;;;;;;;3.35;1.55;;;;;;;3.15;100.00;98369.41;5328560;22;20053;-96
2023/01/16 07:13:04;;;;;;;4.55;1.60;;;;;;;3.16;100.00;98348.00;5460389;22;20052;-96
2023/01/16 07:24:12;;;;;;;6.43;1.38;;;;;;;3.15;100.00;98310.44;5189888;22;20066;-96
2023/01/16 07:26:41;;;;;;;4.10;1.63;;;;;;;3.21;100.00;98308.56;5123058;28;20045;-95
2023/01/16 07:29:27;;;;;;;3.30;1.30;;;;;;;3.10;100.00;98302.88;5115070;28;20046;-94
2023/01/16 07:31:54;;;;;;;5.53;1.60;;;;;;;3.14;100.00;98294.25;5117963;28;20046;-96
2023/01/16 07:34:34;;;;;;;4.75;1.50;;;;;;;3.09;100.00;98285.81;5116632;28;20106;-95
2023/01/16 07:37:00;;;;;;;4.25;1.60;;;;;;;3.13;100.00;98286.56;5117350;28;20069;-95
2023/01/16 07:39:25;;;;;;;8.80;1.60;;;;;;;3.15;100.00;98278.00;5117179;28;20027;-95
2023/01/16 07:41:51;;;;;;;3.22;1.42;;;;;;;3.10;100.00;98267.00;5116878;28;20472;-95
2023/01/16 07:44:29;;;;;;;5.88;1.40;;;;;;;3.16;100.00;98268.56;5117132;28;20030;-95
2023/01/16 07:46:54;;;;;;;6.63;1.63;;;;;;;3.14;100.00;98262.63;5117502;28;20024;-96
2023/01/16 07:49:19;;;;;;;6.55;1.90;;;;;;;3.25;100.00;98252.94;5116039;28;20024;-93
2023/01/16 07:51:45;;;;;;;3.53;1.45;;;;;;;3.19;100.00;98247.97;5116419;28;20031;-90
2023/01/16 07:54:11;;;;;;;4.68;1.60;;;;;;;3.27;100.00;98251.16;5115083;28;20020;-92
2023/01/16 07:56:42;;;;;;;4.05;1.45;;;;;;;3.18;100.00;98236.88;5116175;28;20085;-92
2023/01/16 07:59:07;;;;;;;3.53;1.67;;;;;;;3.16;100.00;98233.50;5116738;28;20023;-92
2023/01/16 08:01:34;;;;;;;2.95;1.40;;;;;;;3.14;100.00;98232.72;5116518;28;20434;-92
2023/01/16 08:04:08;;;;;;;4.07;1.50;;;;;;;3.20;100.00;98226.59;5115334;28;20505;-92
2023/01/16 08:06:34;;;;;;;5.40;1.73;;;;;;;3.20;100.00;98217.16;5116118;28;20034;-90
2023/01/16 08:08:59;;;;;;;3.38;1.60;;;;;;;3.20;100.00;98201.78;5115782;28;20047;-91
2023/01/16 08:11:38;;;;;;;1.40;1.30;;;;;;;3.29;100.00;98205.84;5115711;28;20111;-92
2023/01/16 08:14:05;;;;;;;4.22;1.45;;;;;;;3.15;100.00;98190.00;5116521;28;20096;-91
2023/01/16 08:16:30;;;;;;;4.10;1.40;;;;;;;3.13;100.00;98192.59;5116347;28;20020;-91
2023/01/16 08:18:55;;;;;;;5.10;1.40;;;;;;;3.12;100.00;98179.81;5116210;28;20035;-89
2023/01/16 08:21:21;;;;;;;1.92;1.35;;;;;;;3.13;100.00;98163.56;5115468;28;20084;-92
2023/01/16 08:23:46;;;;;;;4.85;1.73;;;;;;;3.12;100.00;98160.16;5115643;28;20484;-91
2023/01/16 08:26:12;;;;;;;4.22;1.58;;;;;;;3.13;100.00;98148.19;5115681;28;20080;-90
2023/01/16 08:28:38;;;;;;;3.65;1.40;;;;;;;3.11;100.00;98153.38;5115874;28;20098;-90
2023/01/16 08:31:11;;;;;;;3.35;1.45;;;;;;;3.15;100.00;98147.28;5115269;28;20452;-90
2023/01/16 08:33:51;;;;;;;3.47;1.60;;;;;;;3.22;100.00;98129.97;5116131;28;20031;-91
2023/01/16 08:36:19;;;;;;;1.60;1.23;;;;;;;3.13;100.00;98115.72;5114842;28;20047;-90
2023/01/16 08:38:45;;;;;;;1.33;1.23;;;;;;;3.20;100.00;98114.66;5116116;28;20027;-90
2023/01/16 08:52:30;;;;;;;2.38;1.50;;;;;;;3.28;100.00;98111.88;5116109;28;20549;-92
2023/01/16 08:54:56;;;;;;;5.55;1.40;;;;;;;3.29;100.00;98103.28;5116063;28;20015;-91
2023/01/16 08:57:21;;;;;;;3.95;1.80;;;;;;;3.31;100.00;98106.66;5120505;22;20090;-91
2023/01/16 08:59:47;;;;;;;2.00;1.50;;;;;;;3.32;100.00;98110.88;5115616;28;20043;-89
2023/01/16 09:02:14;;;;;;;3.40;1.30;;;;;;;3.45;100.00;98097.69;5114738;28;20472;-92
2023/01/16 09:04:39;;;;;;;3.45;1.70;;;;;;;3.44;100.00;98102.00;5115282;28;20047;-92
2023/01/16 09:07:05;;;;;;;3.78;1.70;;;;;;;3.48;100.00;98092.47;5115291;28;20028;-90
2023/01/16 09:09:34;;;;;;;2.28;1.52;;;;;;;3.51;100.00;98094.94;5115701;28;20026;-92
2023/01/16 09:14:49;;;;;;;5.28;1.77;;;;;;;3.62;100.00;98090.34;5095454;28;20053;-92
2023/01/16 09:17:15;;;;;;;3.70;1.70;;;;;;;3.44;100.00;98086.59;5094856;28;20024;-91
2023/01/16 09:19:40;;;;;;;2.78;1.40;;;;;;;3.46;100.00;98074.59;5102420;28;20034;-92
2023/01/16 09:22:11;;;;;;;2.65;1.42;;;;;;;3.72;100.00;98075.47;5116142;28;20019;-93
2023/01/16 09:24:38;;;;;;;3.88;1.50;;;;;;;3.59;100.00;98072.47;5115247;28;20032;-94
2023/01/16 09:27:18;;;;;;;;;;;;;;;3.51;100.00;98075.25;5114984;28;20019;-93
2023/01/16 09:29:43;;;;;;;2.28;1.23;;;;;;;3.51;100.00;98070.13;5114975;28;20300;-94
2023/01/16 09:32:16;;;;;;;1.85;1.10;;;;;;;3.45;100.00;98070.34;5114172;28;20020;-94
2023/01/16 09:34:42;;;;;;;1.95;1.20;;;;;;;3.46;100.00;98061.75;5115104;28;20016;-94
2023/01/16 09:37:08;;;;;;;1.80;1.13;;;;;;;3.45;100.00;98061.78;5114455;28;20494;-93
2023/01/16 09:39:34;;;;;;;1.37;1.10;;;;;;;3.47;100.00;98057.47;5114321;28;20020;-91
2023/01/16 09:45:08;;;;;;;3.17;1.17;;;;;;;3.45;100.00;98051.53;5115095;28;20030;-92
2023/01/16 09:47:35;;;;;;;1.90;1.50;;;;;;;3.52;100.00;98051.28;5114076;28;20039;-92
2023/01/16 09:50:11;;;;;;;;;;;;;;;3.47;100.00;98053.19;5115311;28;20113;-92
2023/01/16 09:58:38;;;;;;;2.08;1.20;;;;;;;3.56;100.00;98036.66;5114746;28;20089;-90
2023/01/16 10:01:22;;;;;;;1.58;1.20;;;;;;;3.60;100.00;98045.09;5114061;28;20073;-93
2023/01/16 10:03:47;;;;;;;1.27;1.17;;;;;;;3.59;100.00;98035.72;5114255;28;20027;-91
2023/01/16 10:06:48;;;;;;;1.75;1.08;;;;;;;3.74;100.00;98040.34;5114586;28;20015;-92
2023/01/16 10:09:19;;;;;;;1.00;1.00;;;;;;;3.65;100.00;98027.81;5114115;28;20019;-91
2023/01/16 10:11:55;;;;;;;3.15;1.20;;;;;;;3.66;100.00;98025.19;5114547;28;20027;-96
2023/01/16 10:14:54;;;;;;;1.07;1.07;;;;;;;3.68;100.00;98022.59;5114277;28;20032;-91
2023/01/16 10:17:32;;;;;;;1.77;0.95;;;;;;;3.70;100.00;98013.97;5114292;28;20285;-92
2023/01/16 10:20:30;;;;;;;1.65;1.10;;;;;;;3.76;100.00;98005.22;5114608;28;20092;-91
2023/01/16 10:23:01;;;;;;;1.08;0.90;;;;;;;3.82;100.00;97999.91;5115343;28;20105;-91
2023/01/16 10:25:35;;;;;;;1.27;1.10;;;;;;;3.92;100.00;97990.16;5114387;28;20035;-91
2023/01/16 10:28:06;;;;;;;0.82;0.73;;;;;;;3.99;100.00;97990.78;5114611;28;20023;-91
2023/01/16 10:30:51;;;;;;;1.00;0.88;;;;;;;4.11;100.00;97987.81;5114415;28;20031;-91
2023/01/16 10:33:23;;;;;;;1.95;1.10;;;;;;;4.21;100.00;97982.34;5114538;28;20051;-91
2023/01/16 10:35:50;;;;;;;1.20;1.10;;;;;;;4.25;100.00;97977.03;5114120;28;20023;-91
2023/01/16 10:38:46;;;;;;;1.67;0.98;;;;;;;4.36;100.00;97973.25;5114373;28;20026;-91
2023/01/16 10:50:19;;;;;;;1.58;0.90;;;;;;;4.48;100.00;97954.81;5101185;28;20063;-91
2023/01/16 10:52:47;;;;;;;0.70;0.70;;;;;;;4.42;100.00;97949.94;5093631;28;20047;-90
2023/01/16 10:55:13;;;;;;;1.58;0.70;;;;;;;4.47;100.00;97948.88;5093792;28;20103;-91
2023/01/16 10:57:51;;;;;;;1.15;0.70;;;;;;;4.43;100.00;97941.34;5094758;28;20043;-91
2023/01/16 11:00:22;;;;;;;0.57;0.57;;;;;;;4.42;100.00;97924.25;5094847;28;20475;-90
2023/01/16 11:02:48;;;;;;;0.95;0.60;;;;;;;4.41;100.00;97925.97;5093913;28;20036;-90
2023/01/16 11:05:31;;;;;;;1.02;0.93;;;;;;;4.50;100.00;97909.38;5095740;28;20016;-90
2023/01/16 11:08:07;;;;;;;0.82;0.82;;;;;;;4.47;100.00;97905.22;5097484;28;20031;-90
2023/01/16 11:10:32;;;;;;;1.23;0.80;;;;;;;4.40;100.00;97903.75;5097740;28;20024;-90
2023/01/16 11:18:28;;;;;;;1.90;0.98;;;;;;;4.46;100.00;97889.84;5097906;28;20094;-90
2023/01/16 11:18:51;;;;;;;1.25;0.80;;;;;;;4.51;99.19;97884.53;5101172;28;20115;-89
2023/01/16 11:21:24;;;;;;;0.88;0.70;;;;;;;4.46;100.00;97877.84;5117008;28;20499;-89
2023/01/16 11:24:00;;;;;;;0.82;0.75;;;;;;;4.53;100.00;97865.63;5117643;28;20055;-90
2023/01/16 11:26:27;;;;;;;0.85;0.63;;;;;;;4.57;99.25;97866.31;5111696;28;20020;-89
2023/01/16 11:28:56;;;;;;;1.25;0.90;;;;;;;4.55;100.00;97860.41;5117731;28;20043;-90
2023/01/16 11:31:25;;;;;;;0.88;0.68;;;;;;;4.61;100.00;97849.91;5115206;28;20472;-89
2023/01/16 11:33:57;;;;;;;1.05;0.85;;;;;;;4.56;100.00;97842.34;5117221;28;20026;-89
2023/01/16 11:36:24;;;;;;;0.88;0.80;;;;;;;4.59;98.44;97846.56;5116975;28;20035;-90
2023/01/16 11:38:53;;;;;;;0.93;0.73;;;;;;;4.66;98.75;97840.28;5116787;28;20459;-89
2023/01/16 11:41:23;;;;;;;0.65;0.65;;;;;;;4.66;99.19;97831.75;5117175;28;20015;-89
2023/01/16 11:47:05;;;;;;;1.80;0.60;;;;;;;4.69;99.47;97819.59;5116954;28;20039;-90
2023/01/16 11:49:37;;;;;;;3.15;1.02;;;;;;;4.70;98.96;97813.56;5117163;28;20024;-90
2023/01/16 11:52:03;;;;;;;0.60;0.60;;;;;;;4.69;99.39;97809.34;5117064;28;20027;-89
2023/01/16 11:54:32;;;;;;;0.57;0.57;;;;;;;4.73;98.99;97804.91;5117154;28;20356;-89
2023/01/16 11:57:19;;;;;;;0.60;0.60;;;;;;;4.77;99.68;97801.31;5096443;28;20067;-90
2023/01/16 12:00:10;;;;;;;0.68;0.68;;;;;;;4.78;99.28;97787.59;5096605;28;20055;-89
2023/01/16 12:03:17;;;;;;;1.23;1.00;;;;;;;4.87;98.36;97787.19;5097569;28;20567;-88
2023/01/16 12:06:09;;;;;;;2.30;1.40;;;;;;;4.79;98.55;97781.50;5098142;28;20103;-91
2023/01/16 12:09:12;;;;;;;2.67;1.50;;;;;;;4.86;98.27;97779.53;5087756;28;20043;-88
2023/01/16 12:15:04;;;;;;;1.85;1.13;;;;;;;4.84;99.26;97763.38;5034188;28;20053;-90
2023/01/16 12:17:46;;;;;;;2.92;1.65;;;;;;;4.96;98.54;97755.13;5088233;28;20038;-90
2023/01/16 12:20:30;;;;;;;2.00;1.33;;;;;;;4.90;99.41;97755.38;5096372;28;20034;-91
2023/01/16 12:23:25;;;;;;;1.90;1.10;;;;;;;4.90;99.14;97755.38;5096130;28;20129;-90
2023/01/16 12:26:06;;;;;;;1.23;1.10;;;;;;;4.92;99.60;97751.03;5096413;28;20031;-90
2023/01/16 12:28:42;;;;;;;1.98;1.42;;;;;;;4.94;99.78;97744.91;5099799;28;20075;-91
2023/01/16 12:34:08;;;;;;;2.03;1.15;;;;;;;4.93;99.62;97734.72;5095930;28;20071;-89
2023/01/16 12:37:04;;;;;;;1.48;1.20;;;;;;;5.04;99.27;97734.25;5095946;28;20028;-91
2023/01/16 12:39:49;;;;;;;1.20;1.10;;;;;;;4.98;99.06;97722.47;5095688;28;20024;-90
2023/01/16 12:45:47;;;;;;;1.55;0.80;;;;;;;4.98;99.36;97713.94;5106994;28;20034;-89
2023/01/16 12:49:11;;;;;;;0.93;0.90;;;;;;;5.05;99.02;97710.22;5095790;28;20020;-91
2023/01/16 12:51:54;;;;;;;1.10;1.00;;;;;;;5.05;99.15;97700.78;5041481;28;20036;-91
2023/01/16 12:54:43;;;;;;;1.10;1.00;;;;;;;5.08;99.10;97705.75;5095114;28;20032;-91
2023/01/16 12:57:47;;;;;;;1.02;0.60;;;;;;;5.13;100.00;97687.56;5094908;28;20166;-91
2023/01/16 13:00:24;;;;;;;1.38;0.80;;;;;;;5.23;99.15;97688.00;5094500;28;20051;-91
2023/01/16 13:03:22;;;;;;;1.00;0.82;;;;;;;5.24;99.47;97679.38;5095019;28;20089;-90
2023/01/16 13:05:49;;;;;;;1.08;0.95;;;;;;;5.33;98.88;97678.16;5081313;28;20492;-91
2023/01/16 13:08:32;;;;;;;1.65;0.98;;;;;;;5.34;98.00;97667.78;5096548;28;20024;-89
2023/01/16 13:14:00;;;;;;;1.30;0.60;;;;;;;5.31;99.23;97664.53;5104611;28;20038;-88
2023/01/16 13:16:32;;;;;;;1.85;0.80;;;;;;;5.32;99.39;97661.88;5114552;28;20107;-90
2023/01/16 13:19:14;;;;;;;0.77;0.73;;;;;;;5.31;98.85;97656.81;5114539;28;20050;-89